sensor_id;sensor_type;location;lat;lon;timestamp;P1;durP1;ratioP1;P2;durP2;ratioP2
12224;SDS011;6175;50.956;11.064;2024-02-26T00:01:50;3.90;;;3.50;;
12224;SDS011;6175;50.956;11.064;2024-02-26T00:04:19;3.17;;;2.88;;
12224;SDS011;6175;50.956;11.064;2024-02-26T00:06:47;4.10;;;3.00;;
12224;SDS011;6175;50.956;11.064;2024-02-26T00:09:15;3.47;;;3.00;;
12224;SDS011;6175;50.956;11.064;2024-02-26T00:11:42;3.55;;;3.00;;
12224;SDS011;6175;50.956;11.064;2024-02-26T00:14:09;4.22;;;3.42;;
12224;SDS011;6175;50.956;11.064;2024-02-26T00:16:39;3.13;;;2.83;;
12224;SDS011;6175;50.956;11.064;2024-02-26T00:19:06;3.47;;;3.17;;
12224;SDS011;6175;50.956;11.064;2024-02-26T00:21:34;3.70;;;3.30;;
12224;SDS011;6175;50.956;11.064;2024-02-26T00:24:02;4.90;;;3.47;;
12224;SDS011;6175;50.956;11.064;2024-02-26T00:26:29;3.17;;;2.88;;
12224;SDS011;6175;50.956;11.064;2024-02-26T00:28:56;3.53;;;3.00;;
12224;SDS011;6175;50.956;11.064;2024-02-26T00:31:23;3.58;;;3.28;;
12224;SDS011;6175;50.956;11.064;2024-02-26T00:33:50;5.22;;;3.00;;
12224;SDS011;6175;50.956;11.064;2024-02-26T00:36:17;3.90;;;3.38;;
12224;SDS011;6175;50.956;11.064;2024-02-26T00:38:46;3.23;;;2.93;;
12224;SDS011;6175;50.956;11.064;2024-02-26T00:41:15;3.05;;;2.75;;
12224;SDS011;6175;50.956;11.064;2024-02-26T00:43:43;4.05;;;2.78;;
12224;SDS011;6175;50.956;11.064;2024-02-26T00:46:10;3.97;;;3.00;;
12224;SDS011;6175;50.956;11.064;2024-02-26T00:48:37;2.85;;;2.65;;
12224;SDS011;6175;50.956;11.064;2024-02-26T00:51:04;3.23;;;2.93;;
12224;SDS011;6175;50.956;11.064;2024-02-26T00:53:32;2.87;;;2.57;;
12224;SDS011;6175;50.956;11.064;2024-02-26T00:56:01;2.67;;;2.47;;
12224;SDS011;6175;50.956;11.064;2024-02-26T00:58:28;3.53;;;3.13;;
12224;SDS011;6175;50.956;11.064;2024-02-26T01:00:55;3.22;;;2.70;;
12224;SDS011;6175;50.956;11.064;2024-02-26T01:03:22;2.63;;;2.40;;
12224;SDS011;6175;50.956;11.064;2024-02-26T01:05:49;3.65;;;2.97;;
12224;SDS011;6175;50.956;11.064;2024-02-26T01:08:16;3.58;;;3.13;;
12224;SDS011;6175;50.956;11.064;2024-02-26T01:10:43;3.75;;;2.50;;
12224;SDS011;6175;50.956;11.064;2024-02-26T01:13:12;4.28;;;3.17;;
12224;SDS011;6175;50.956;11.064;2024-02-26T01:15:39;3.05;;;2.75;;
12224;SDS011;6175;50.956;11.064;2024-02-26T01:18:08;3.47;;;3.17;;
12224;SDS011;6175;50.956;11.064;2024-02-26T01:20:35;3.40;;;3.10;;
12224;SDS011;6175;50.956;11.064;2024-02-26T01:23:03;3.88;;;3.15;;
12224;SDS011;6175;50.956;11.064;2024-02-26T01:25:30;4.20;;;3.07;;
12224;SDS011;6175;50.956;11.064;2024-02-26T01:27:57;3.30;;;2.83;;
12224;SDS011;6175;50.956;11.064;2024-02-26T01:30:25;4.10;;;3.30;;
12224;SDS011;6175;50.956;11.064;2024-02-26T01:32:52;3.87;;;3.13;;
12224;SDS011;6175;50.956;11.064;2024-02-26T01:35:19;3.17;;;2.88;;
12224;SDS011;6175;50.956;11.064;2024-02-26T01:37:47;5.18;;;3.03;;
12224;SDS011;6175;50.956;11.064;2024-02-26T01:40:14;3.30;;;3.00;;
12224;SDS011;6175;50.956;11.064;2024-02-26T01:42:43;4.23;;;3.07;;
12224;SDS011;6175;50.956;11.064;2024-02-26T01:45:12;3.90;;;3.10;;
12224;SDS011;6175;50.956;11.064;2024-02-26T01:47:47;4.50;;;3.42;;
12224;SDS011;6175;50.956;11.064;2024-02-26T01:50:14;3.10;;;2.80;;
12224;SDS011;6175;50.956;11.064;2024-02-26T01:52:41;3.03;;;2.70;;
12224;SDS011;6175;50.956;11.064;2024-02-26T01:55:09;4.18;;;2.88;;
12224;SDS011;6175;50.956;11.064;2024-02-26T01:57:36;3.07;;;2.80;;
12224;SDS011;6175;50.956;11.064;2024-02-26T02:00:03;4.20;;;2.78;;
12224;SDS011;6175;50.956;11.064;2024-02-26T02:02:32;3.67;;;2.85;;
12224;SDS011;6175;50.956;11.064;2024-02-26T02:05:01;3.10;;;2.80;;
12224;SDS011;6175;50.956;11.064;2024-02-26T02:07:28;3.22;;;2.92;;
12224;SDS011;6175;50.956;11.064;2024-02-26T02:09:55;3.13;;;2.83;;
12224;SDS011;6175;50.956;11.064;2024-02-26T02:12:23;3.03;;;2.72;;
12224;SDS011;6175;50.956;11.064;2024-02-26T02:14:50;3.67;;;2.90;;
12224;SDS011;6175;50.956;11.064;2024-02-26T02:17:17;3.27;;;2.97;;
12224;SDS011;6175;50.956;11.064;2024-02-26T02:19:44;3.07;;;2.70;;
12224;SDS011;6175;50.956;11.064;2024-02-26T02:22:12;3.43;;;3.13;;
12224;SDS011;6175;50.956;11.064;2024-02-26T02:24:40;3.67;;;3.10;;
12224;SDS011;6175;50.956;11.064;2024-02-26T02:27:07;3.30;;;2.90;;
12224;SDS011;6175;50.956;11.064;2024-02-26T02:29:34;3.70;;;2.87;;
12224;SDS011;6175;50.956;11.064;2024-02-26T02:32:01;3.40;;;2.77;;
12224;SDS011;6175;50.956;11.064;2024-02-26T02:34:28;3.40;;;2.77;;
12224;SDS011;6175;50.956;11.064;2024-02-26T02:36:55;3.07;;;2.73;;
12224;SDS011;6175;50.956;11.064;2024-02-26T02:39:24;3.35;;;2.95;;
12224;SDS011;6175;50.956;11.064;2024-02-26T02:41:51;3.10;;;2.60;;
12224;SDS011;6175;50.956;11.064;2024-02-26T02:44:18;3.27;;;2.97;;
12224;SDS011;6175;50.956;11.064;2024-02-26T02:46:45;3.00;;;2.70;;
12224;SDS011;6175;50.956;11.064;2024-02-26T02:49:13;3.50;;;3.20;;
12224;SDS011;6175;50.956;11.064;2024-02-26T02:51:41;3.55;;;3.17;;
12224;SDS011;6175;50.956;11.064;2024-02-26T02:54:08;3.13;;;2.78;;
12224;SDS011;6175;50.956;11.064;2024-02-26T02:56:36;3.67;;;3.10;;
12224;SDS011;6175;50.956;11.064;2024-02-26T02:59:03;3.37;;;3.00;;
12224;SDS011;6175;50.956;11.064;2024-02-26T03:01:30;3.83;;;3.20;;
12224;SDS011;6175;50.956;11.064;2024-02-26T03:03:59;5.03;;;3.00;;
12224;SDS011;6175;50.956;11.064;2024-02-26T03:06:26;3.33;;;2.93;;
12224;SDS011;6175;50.956;11.064;2024-02-26T03:08:53;3.63;;;3.15;;
12224;SDS011;6175;50.956;11.064;2024-02-26T03:11:20;4.27;;;3.03;;
12224;SDS011;6175;50.956;11.064;2024-02-26T03:13:49;3.63;;;3.30;;
12224;SDS011;6175;50.956;11.064;2024-02-26T03:16:16;4.53;;;3.23;;
12224;SDS011;6175;50.956;11.064;2024-02-26T03:18:43;3.70;;;3.00;;
12224;SDS011;6175;50.956;11.064;2024-02-26T03:21:10;3.70;;;3.33;;
12224;SDS011;6175;50.956;11.064;2024-02-26T03:23:38;3.77;;;3.43;;
12224;SDS011;6175;50.956;11.064;2024-02-26T03:26:05;5.15;;;3.58;;
12224;SDS011;6175;50.956;11.064;2024-02-26T03:28:33;3.47;;;3.17;;
12224;SDS011;6175;50.956;11.064;2024-02-26T03:31:02;3.97;;;3.30;;
12224;SDS011;6175;50.956;11.064;2024-02-26T03:33:29;4.22;;;3.50;;
12224;SDS011;6175;50.956;11.064;2024-02-26T03:35:56;4.60;;;3.50;;
12224;SDS011;6175;50.956;11.064;2024-02-26T03:38:23;3.67;;;3.07;;
12224;SDS011;6175;50.956;11.064;2024-02-26T03:40:50;4.07;;;3.40;;
12224;SDS011;6175;50.956;11.064;2024-02-26T03:43:17;4.30;;;3.77;;
12224;SDS011;6175;50.956;11.064;2024-02-26T03:45:44;6.13;;;4.13;;
12224;SDS011;6175;50.956;11.064;2024-02-26T03:48:13;4.17;;;3.77;;
12224;SDS011;6175;50.956;11.064;2024-02-26T03:50:40;3.90;;;3.50;;
12224;SDS011;6175;50.956;11.064;2024-02-26T03:53:07;3.47;;;3.17;;
12224;SDS011;6175;50.956;11.064;2024-02-26T03:55:37;3.63;;;3.20;;
12224;SDS011;6175;50.956;11.064;2024-02-26T03:58:06;3.43;;;3.13;;
12224;SDS011;6175;50.956;11.064;2024-02-26T04:00:34;4.30;;;3.63;;
12224;SDS011;6175;50.956;11.064;2024-02-26T04:03:01;4.30;;;3.90;;
12224;SDS011;6175;50.956;11.064;2024-02-26T04:05:29;5.03;;;3.37;;
12224;SDS011;6175;50.956;11.064;2024-02-26T04:07:56;3.77;;;3.27;;
12224;SDS011;6175;50.956;11.064;2024-02-26T04:10:24;4.03;;;3.60;;
12224;SDS011;6175;50.956;11.064;2024-02-26T04:12:51;3.77;;;3.30;;
12224;SDS011;6175;50.956;11.064;2024-02-26T04:15:18;3.40;;;3.10;;
12224;SDS011;6175;50.956;11.064;2024-02-26T04:17:45;5.50;;;3.70;;
12224;SDS011;6175;50.956;11.064;2024-02-26T04:20:13;4.00;;;3.50;;
12224;SDS011;6175;50.956;11.064;2024-02-26T04:22:42;4.50;;;4.10;;
12224;SDS011;6175;50.956;11.064;2024-02-26T04:25:09;4.80;;;4.10;;
12224;SDS011;6175;50.956;11.064;2024-02-26T04:27:36;4.13;;;3.63;;
12224;SDS011;6175;50.956;11.064;2024-02-26T04:30:04;4.30;;;3.90;;
12224;SDS011;6175;50.956;11.064;2024-02-26T04:32:31;4.80;;;4.30;;
12224;SDS011;6175;50.956;11.064;2024-02-26T04:34:59;5.17;;;4.23;;
12224;SDS011;6175;50.956;11.064;2024-02-26T04:37:26;5.03;;;4.03;;
12224;SDS011;6175;50.956;11.064;2024-02-26T04:39:57;4.30;;;3.90;;
12224;SDS011;6175;50.956;11.064;2024-02-26T04:42:24;4.83;;;3.77;;
12224;SDS011;6175;50.956;11.064;2024-02-26T04:44:51;4.13;;;3.73;;
12224;SDS011;6175;50.956;11.064;2024-02-26T04:47:18;5.23;;;4.50;;
12224;SDS011;6175;50.956;11.064;2024-02-26T04:49:47;5.43;;;4.93;;
12224;SDS011;6175;50.956;11.064;2024-02-26T04:52:14;5.27;;;4.03;;
12224;SDS011;6175;50.956;11.064;2024-02-26T04:54:41;4.63;;;3.83;;
12224;SDS011;6175;50.956;11.064;2024-02-26T04:57:09;5.07;;;3.97;;
12224;SDS011;6175;50.956;11.064;2024-02-26T04:59:36;5.30;;;4.20;;
12224;SDS011;6175;50.956;11.064;2024-02-26T05:02:05;5.20;;;4.20;;
12224;SDS011;6175;50.956;11.064;2024-02-26T05:04:32;6.13;;;4.40;;
12224;SDS011;6175;50.956;11.064;2024-02-26T05:07:00;5.43;;;4.47;;
12224;SDS011;6175;50.956;11.064;2024-02-26T05:09:27;4.60;;;4.20;;
12224;SDS011;6175;50.956;11.064;2024-02-26T05:11:54;4.23;;;3.70;;
12224;SDS011;6175;50.956;11.064;2024-02-26T05:14:22;4.90;;;4.00;;
12224;SDS011;6175;50.956;11.064;2024-02-26T05:16:49;6.13;;;4.37;;
12224;SDS011;6175;50.956;11.064;2024-02-26T05:19:16;4.10;;;3.70;;
12224;SDS011;6175;50.956;11.064;2024-02-26T05:21:43;5.43;;;4.53;;
12224;SDS011;6175;50.956;11.064;2024-02-26T05:24:14;6.63;;;4.50;;
12224;SDS011;6175;50.956;11.064;2024-02-26T05:26:42;5.80;;;4.67;;
12224;SDS011;6175;50.956;11.064;2024-02-26T05:29:09;6.57;;;5.10;;
12224;SDS011;6175;50.956;11.064;2024-02-26T05:31:38;5.53;;;4.20;;
12224;SDS011;6175;50.956;11.064;2024-02-26T05:34:05;6.63;;;4.83;;
12224;SDS011;6175;50.956;11.064;2024-02-26T05:36:32;5.20;;;4.63;;
12224;SDS011;6175;50.956;11.064;2024-02-26T05:38:59;4.87;;;4.37;;
12224;SDS011;6175;50.956;11.064;2024-02-26T05:41:26;5.53;;;4.53;;
12224;SDS011;6175;50.956;11.064;2024-02-26T05:43:53;6.80;;;5.17;;
12224;SDS011;6175;50.956;11.064;2024-02-26T05:46:20;5.83;;;4.67;;
12224;SDS011;6175;50.956;11.064;2024-02-26T05:48:49;7.80;;;5.07;;
12224;SDS011;6175;50.956;11.064;2024-02-26T05:51:17;5.18;;;4.68;;
12224;SDS011;6175;50.956;11.064;2024-02-26T05:53:44;5.53;;;4.93;;
12224;SDS011;6175;50.956;11.064;2024-02-26T05:56:11;5.90;;;5.32;;
12224;SDS011;6175;50.956;11.064;2024-02-26T05:58:38;6.43;;;4.97;;
12224;SDS011;6175;50.956;11.064;2024-02-26T06:01:06;5.65;;;4.78;;
12224;SDS011;6175;50.956;11.064;2024-02-26T06:03:33;6.70;;;5.20;;
12224;SDS011;6175;50.956;11.064;2024-02-26T06:06:01;5.20;;;4.47;;
12224;SDS011;6175;50.956;11.064;2024-02-26T06:08:28;6.13;;;4.83;;
12224;SDS011;6175;50.956;11.064;2024-02-26T06:10:56;6.00;;;4.88;;
12224;SDS011;6175;50.956;11.064;2024-02-26T06:13:23;5.35;;;4.40;;
12224;SDS011;6175;50.956;11.064;2024-02-26T06:15:50;5.47;;;4.55;;
12224;SDS011;6175;50.956;11.064;2024-02-26T06:18:17;6.00;;;4.90;;
12224;SDS011;6175;50.956;11.064;2024-02-26T06:20:44;4.93;;;4.43;;
12224;SDS011;6175;50.956;11.064;2024-02-26T06:23:13;4.50;;;4.10;;
12224;SDS011;6175;50.956;11.064;2024-02-26T06:25:40;5.10;;;4.30;;
12224;SDS011;6175;50.956;11.064;2024-02-26T06:28:08;5.72;;;4.53;;
12224;SDS011;6175;50.956;11.064;2024-02-26T06:30:35;5.97;;;4.63;;
12224;SDS011;6175;50.956;11.064;2024-02-26T06:33:02;4.70;;;4.07;;
12224;SDS011;6175;50.956;11.064;2024-02-26T06:35:29;5.20;;;4.70;;
12224;SDS011;6175;50.956;11.064;2024-02-26T06:37:56;7.77;;;5.63;;
12224;SDS011;6175;50.956;11.064;2024-02-26T06:40:25;9.38;;;7.00;;
12224;SDS011;6175;50.956;11.064;2024-02-26T06:42:52;6.50;;;5.80;;
12224;SDS011;6175;50.956;11.064;2024-02-26T06:45:19;7.00;;;6.18;;
12224;SDS011;6175;50.956;11.064;2024-02-26T06:47:46;7.40;;;6.05;;
12224;SDS011;6175;50.956;11.064;2024-02-26T06:50:14;7.68;;;5.78;;
12224;SDS011;6175;50.956;11.064;2024-02-26T06:52:42;7.22;;;5.72;;
12224;SDS011;6175;50.956;11.064;2024-02-26T06:55:10;6.63;;;5.87;;
12224;SDS011;6175;50.956;11.064;2024-02-26T06:57:40;6.43;;;5.70;;
12224;SDS011;6175;50.956;11.064;2024-02-26T07:00:09;7.10;;;6.10;;
12224;SDS011;6175;50.956;11.064;2024-02-26T07:02:39;7.18;;;5.47;;
12224;SDS011;6175;50.956;11.064;2024-02-26T07:05:07;7.67;;;6.20;;
12224;SDS011;6175;50.956;11.064;2024-02-26T07:07:34;7.53;;;6.55;;
12224;SDS011;6175;50.956;11.064;2024-02-26T07:10:01;9.43;;;7.45;;
12224;SDS011;6175;50.956;11.064;2024-02-26T07:12:28;8.55;;;7.40;;
12224;SDS011;6175;50.956;11.064;2024-02-26T07:14:57;10.25;;;7.75;;
12224;SDS011;6175;50.956;11.064;2024-02-26T07:17:24;8.20;;;7.30;;
12224;SDS011;6175;50.956;11.064;2024-02-26T07:19:51;8.93;;;7.22;;
12224;SDS011;6175;50.956;11.064;2024-02-26T07:22:18;10.40;;;7.13;;
12224;SDS011;6175;50.956;11.064;2024-02-26T07:24:45;9.32;;;6.82;;
12224;SDS011;6175;50.956;11.064;2024-02-26T07:27:13;9.18;;;7.20;;
12224;SDS011;6175;50.956;11.064;2024-02-26T07:29:42;10.75;;;7.85;;
12224;SDS011;6175;50.956;11.064;2024-02-26T07:32:11;8.05;;;7.18;;
12224;SDS011;6175;50.956;11.064;2024-02-26T07:34:38;9.73;;;7.95;;
12224;SDS011;6175;50.956;11.064;2024-02-26T07:37:06;10.75;;;7.90;;
12224;SDS011;6175;50.956;11.064;2024-02-26T07:39:34;11.10;;;8.60;;
12224;SDS011;6175;50.956;11.064;2024-02-26T07:42:01;11.10;;;8.00;;
12224;SDS011;6175;50.956;11.064;2024-02-26T07:44:29;11.00;;;8.45;;
12224;SDS011;6175;50.956;11.064;2024-02-26T07:46:56;11.30;;;8.25;;
12224;SDS011;6175;50.956;11.064;2024-02-26T07:49:25;11.75;;;8.50;;
12224;SDS011;6175;50.956;11.064;2024-02-26T07:51:52;10.25;;;7.43;;
12224;SDS011;6175;50.956;11.064;2024-02-26T07:54:19;10.40;;;8.07;;
12224;SDS011;6175;50.956;11.064;2024-02-26T07:56:46;9.23;;;7.47;;
12224;SDS011;6175;50.956;11.064;2024-02-26T07:59:14;10.30;;;8.02;;
12224;SDS011;6175;50.956;11.064;2024-02-26T08:01:41;11.13;;;8.48;;
12224;SDS011;6175;50.956;11.064;2024-02-26T08:04:08;10.40;;;7.93;;
12224;SDS011;6175;50.956;11.064;2024-02-26T08:06:37;11.25;;;8.63;;
12224;SDS011;6175;50.956;11.064;2024-02-26T08:09:04;11.95;;;9.20;;
12224;SDS011;6175;50.956;11.064;2024-02-26T08:11:31;11.80;;;9.45;;
12224;SDS011;6175;50.956;11.064;2024-02-26T08:13:59;12.57;;;9.15;;
12224;SDS011;6175;50.956;11.064;2024-02-26T08:16:26;10.77;;;9.10;;
12224;SDS011;6175;50.956;11.064;2024-02-26T08:18:53;10.82;;;9.23;;
12224;SDS011;6175;50.956;11.064;2024-02-26T08:21:20;10.95;;;8.73;;
12224;SDS011;6175;50.956;11.064;2024-02-26T08:23:49;12.52;;;9.60;;
12224;SDS011;6175;50.956;11.064;2024-02-26T08:26:16;12.57;;;9.45;;
12224;SDS011;6175;50.956;11.064;2024-02-26T08:28:45;12.65;;;9.90;;
12224;SDS011;6175;50.956;11.064;2024-02-26T08:31:14;12.48;;;9.55;;
12224;SDS011;6175;50.956;11.064;2024-02-26T08:33:41;14.23;;;10.15;;
12224;SDS011;6175;50.956;11.064;2024-02-26T08:36:09;16.05;;;11.40;;
12224;SDS011;6175;50.956;11.064;2024-02-26T08:38:36;14.93;;;11.48;;
12224;SDS011;6175;50.956;11.064;2024-02-26T08:41:04;13.32;;;11.02;;
12224;SDS011;6175;50.956;11.064;2024-02-26T08:43:31;12.70;;;10.55;;
12224;SDS011;6175;50.956;11.064;2024-02-26T08:45:58;14.52;;;11.10;;
12224;SDS011;6175;50.956;11.064;2024-02-26T08:48:26;16.58;;;11.27;;
12224;SDS011;6175;50.956;11.064;2024-02-26T08:50:53;16.02;;;12.73;;
12224;SDS011;6175;50.956;11.064;2024-02-26T08:53:20;16.63;;;12.40;;
12224;SDS011;6175;50.956;11.064;2024-02-26T08:55:48;18.83;;;13.20;;
12224;SDS011;6175;50.956;11.064;2024-02-26T08:58:17;17.42;;;13.80;;
12224;SDS011;6175;50.956;11.064;2024-02-26T09:00:45;19.70;;;13.68;;
12224;SDS011;6175;50.956;11.064;2024-02-26T09:03:12;17.60;;;12.98;;
12224;SDS011;6175;50.956;11.064;2024-02-26T09:05:39;18.80;;;13.00;;
12224;SDS011;6175;50.956;11.064;2024-02-26T09:08:07;19.17;;;13.60;;
12224;SDS011;6175;50.956;11.064;2024-02-26T09:10:34;19.77;;;14.57;;
12224;SDS011;6175;50.956;11.064;2024-02-26T09:13:01;17.38;;;13.57;;
12224;SDS011;6175;50.956;11.064;2024-02-26T09:15:30;19.50;;;14.30;;
12224;SDS011;6175;50.956;11.064;2024-02-26T09:17:57;20.50;;;14.75;;
12224;SDS011;6175;50.956;11.064;2024-02-26T09:20:24;20.77;;;14.05;;
12224;SDS011;6175;50.956;11.064;2024-02-26T09:22:51;20.80;;;14.60;;
12224;SDS011;6175;50.956;11.064;2024-02-26T09:25:18;19.67;;;14.50;;
12224;SDS011;6175;50.956;11.064;2024-02-26T09:27:46;22.42;;;15.02;;
12224;SDS011;6175;50.956;11.064;2024-02-26T09:30:13;17.50;;;13.35;;
12224;SDS011;6175;50.956;11.064;2024-02-26T09:32:45;17.95;;;14.27;;
12224;SDS011;6175;50.956;11.064;2024-02-26T09:35:13;24.95;;;18.40;;
12224;SDS011;6175;50.956;11.064;2024-02-26T09:37:40;27.48;;;19.58;;
12224;SDS011;6175;50.956;11.064;2024-02-26T09:40:09;25.70;;;18.77;;
12224;SDS011;6175;50.956;11.064;2024-02-26T09:42:36;26.33;;;19.30;;
12224;SDS011;6175;50.956;11.064;2024-02-26T09:45:05;22.20;;;17.88;;
12224;SDS011;6175;50.956;11.064;2024-02-26T09:47:35;22.88;;;16.55;;
12224;SDS011;6175;50.956;11.064;2024-02-26T09:50:05;23.48;;;17.02;;
12224;SDS011;6175;50.956;11.064;2024-02-26T09:52:37;25.13;;;17.88;;
12224;SDS011;6175;50.956;11.064;2024-02-26T09:55:06;25.67;;;18.45;;
12224;SDS011;6175;50.956;11.064;2024-02-26T09:57:35;25.85;;;19.15;;
12224;SDS011;6175;50.956;11.064;2024-02-26T10:00:04;25.83;;;19.30;;
12224;SDS011;6175;50.956;11.064;2024-02-26T10:02:36;25.90;;;19.83;;
12224;SDS011;6175;50.956;11.064;2024-02-26T10:05:07;28.15;;;21.08;;
12224;SDS011;6175;50.956;11.064;2024-02-26T10:07:38;28.48;;;20.63;;
12224;SDS011;6175;50.956;11.064;2024-02-26T10:10:06;23.02;;;17.27;;
12224;SDS011;6175;50.956;11.064;2024-02-26T10:12:33;25.50;;;19.38;;
12224;SDS011;6175;50.956;11.064;2024-02-26T10:15:00;25.23;;;18.52;;
12224;SDS011;6175;50.956;11.064;2024-02-26T10:17:28;22.15;;;17.33;;
12224;SDS011;6175;50.956;11.064;2024-02-26T10:19:55;26.10;;;19.27;;
12224;SDS011;6175;50.956;11.064;2024-02-26T10:22:39;23.15;;;17.95;;
12224;SDS011;6175;50.956;11.064;2024-02-26T10:25:07;25.92;;;18.42;;
12224;SDS011;6175;50.956;11.064;2024-02-26T10:27:35;25.45;;;18.95;;
12224;SDS011;6175;50.956;11.064;2024-02-26T10:30:02;24.02;;;18.02;;
12224;SDS011;6175;50.956;11.064;2024-02-26T10:32:30;25.70;;;19.05;;
12224;SDS011;6175;50.956;11.064;2024-02-26T10:34:57;24.20;;;17.60;;
12224;SDS011;6175;50.956;11.064;2024-02-26T10:37:26;22.10;;;16.77;;
12224;SDS011;6175;50.956;11.064;2024-02-26T10:39:53;22.83;;;17.40;;
12224;SDS011;6175;50.956;11.064;2024-02-26T10:42:20;23.15;;;17.23;;
12224;SDS011;6175;50.956;11.064;2024-02-26T10:44:47;22.73;;;18.27;;
12224;SDS011;6175;50.956;11.064;2024-02-26T10:47:14;22.58;;;18.35;;
12224;SDS011;6175;50.956;11.064;2024-02-26T10:49:45;22.85;;;17.50;;
12224;SDS011;6175;50.956;11.064;2024-02-26T10:52:12;20.08;;;15.98;;
12224;SDS011;6175;50.956;11.064;2024-02-26T10:54:44;25.67;;;18.13;;
12224;SDS011;6175;50.956;11.064;2024-02-26T10:57:16;21.63;;;16.58;;
12224;SDS011;6175;50.956;11.064;2024-02-26T10:59:44;23.58;;;17.75;;
12224;SDS011;6175;50.956;11.064;2024-02-26T11:02:12;21.20;;;16.35;;
12224;SDS011;6175;50.956;11.064;2024-02-26T11:04:40;21.58;;;16.25;;
12224;SDS011;6175;50.956;11.064;2024-02-26T11:07:08;21.23;;;17.00;;
12224;SDS011;6175;50.956;11.064;2024-02-26T11:09:36;19.42;;;15.70;;
12224;SDS011;6175;50.956;11.064;2024-02-26T11:12:10;19.88;;;16.73;;
12224;SDS011;6175;50.956;11.064;2024-02-26T11:14:38;21.27;;;16.77;;
12224;SDS011;6175;50.956;11.064;2024-02-26T11:17:06;19.08;;;16.15;;
12224;SDS011;6175;50.956;11.064;2024-02-26T11:19:35;20.30;;;16.25;;
12224;SDS011;6175;50.956;11.064;2024-02-26T11:22:02;22.17;;;17.33;;
12224;SDS011;6175;50.956;11.064;2024-02-26T11:24:29;23.42;;;17.25;;
12224;SDS011;6175;50.956;11.064;2024-02-26T11:26:57;20.77;;;17.23;;
12224;SDS011;6175;50.956;11.064;2024-02-26T11:29:29;23.75;;;18.48;;
12224;SDS011;6175;50.956;11.064;2024-02-26T11:32:00;22.95;;;17.00;;
12224;SDS011;6175;50.956;11.064;2024-02-26T11:34:27;23.83;;;17.48;;
12224;SDS011;6175;50.956;11.064;2024-02-26T11:36:54;23.70;;;17.83;;
12224;SDS011;6175;50.956;11.064;2024-02-26T11:39:22;18.10;;;15.27;;
12224;SDS011;6175;50.956;11.064;2024-02-26T11:41:49;19.80;;;15.77;;
12224;SDS011;6175;50.956;11.064;2024-02-26T11:44:29;18.35;;;14.90;;
12224;SDS011;6175;50.956;11.064;2024-02-26T11:46:56;19.67;;;16.02;;
12224;SDS011;6175;50.956;11.064;2024-02-26T11:49:30;19.00;;;15.55;;
12224;SDS011;6175;50.956;11.064;2024-02-26T11:51:58;18.88;;;16.30;;
12224;SDS011;6175;50.956;11.064;2024-02-26T11:54:38;20.60;;;15.68;;
12224;SDS011;6175;50.956;11.064;2024-02-26T11:57:19;21.02;;;16.05;;
12224;SDS011;6175;50.956;11.064;2024-02-26T11:59:48;21.45;;;16.30;;
12224;SDS011;6175;50.956;11.064;2024-02-26T12:05:08;21.98;;;16.45;;
12224;SDS011;6175;50.956;11.064;2024-02-26T12:07:39;21.58;;;17.65;;
12224;SDS011;6175;50.956;11.064;2024-02-26T12:10:26;23.73;;;18.27;;
12224;SDS011;6175;50.956;11.064;2024-02-26T12:12:54;21.05;;;16.33;;
12224;SDS011;6175;50.956;11.064;2024-02-26T12:15:24;29.38;;;21.48;;
12224;SDS011;6175;50.956;11.064;2024-02-26T12:17:51;28.35;;;19.98;;
12224;SDS011;6175;50.956;11.064;2024-02-26T12:20:19;21.58;;;16.02;;
12224;SDS011;6175;50.956;11.064;2024-02-26T12:22:46;26.13;;;18.40;;
12224;SDS011;6175;50.956;11.064;2024-02-26T12:25:14;22.02;;;17.45;;
12224;SDS011;6175;50.956;11.064;2024-02-26T12:27:41;26.08;;;18.52;;
12224;SDS011;6175;50.956;11.064;2024-02-26T12:30:09;21.13;;;16.73;;
12224;SDS011;6175;50.956;11.064;2024-02-26T12:32:37;21.67;;;16.40;;
12224;SDS011;6175;50.956;11.064;2024-02-26T12:35:05;18.35;;;15.20;;
12224;SDS011;6175;50.956;11.064;2024-02-26T12:37:33;17.42;;;13.63;;
12224;SDS011;6175;50.956;11.064;2024-02-26T12:40:03;19.95;;;16.05;;
12224;SDS011;6175;50.956;11.064;2024-02-26T12:42:30;19.35;;;15.23;;
12224;SDS011;6175;50.956;11.064;2024-02-26T12:44:58;18.45;;;14.40;;
12224;SDS011;6175;50.956;11.064;2024-02-26T12:47:25;19.30;;;15.40;;
12224;SDS011;6175;50.956;11.064;2024-02-26T12:49:54;21.35;;;17.02;;
12224;SDS011;6175;50.956;11.064;2024-02-26T12:52:21;21.13;;;16.15;;
12224;SDS011;6175;50.956;11.064;2024-02-26T12:54:49;20.33;;;16.13;;
12224;SDS011;6175;50.956;11.064;2024-02-26T12:57:16;20.70;;;15.98;;
12224;SDS011;6175;50.956;11.064;2024-02-26T12:59:43;22.65;;;16.35;;
12224;SDS011;6175;50.956;11.064;2024-02-26T13:02:10;20.63;;;15.98;;
12224;SDS011;6175;50.956;11.064;2024-02-26T13:04:38;20.42;;;15.18;;
12224;SDS011;6175;50.956;11.064;2024-02-26T13:07:07;18.10;;;14.18;;
12224;SDS011;6175;50.956;11.064;2024-02-26T13:09:34;18.40;;;15.18;;
12224;SDS011;6175;50.956;11.064;2024-02-26T13:12:03;18.95;;;14.90;;
12224;SDS011;6175;50.956;11.064;2024-02-26T13:14:31;19.17;;;15.50;;
12224;SDS011;6175;50.956;11.064;2024-02-26T13:16:59;22.25;;;15.95;;
12224;SDS011;6175;50.956;11.064;2024-02-26T13:19:26;18.42;;;15.02;;
12224;SDS011;6175;50.956;11.064;2024-02-26T13:21:54;17.70;;;14.40;;
12224;SDS011;6175;50.956;11.064;2024-02-26T13:24:22;17.88;;;14.13;;
12224;SDS011;6175;50.956;11.064;2024-02-26T13:26:53;18.65;;;14.68;;
12224;SDS011;6175;50.956;11.064;2024-02-26T13:29:21;16.48;;;13.38;;
12224;SDS011;6175;50.956;11.064;2024-02-26T13:31:53;15.98;;;13.00;;
12224;SDS011;6175;50.956;11.064;2024-02-26T13:34:24;15.43;;;13.60;;
12224;SDS011;6175;50.956;11.064;2024-02-26T13:36:51;17.13;;;13.77;;
12224;SDS011;6175;50.956;11.064;2024-02-26T13:39:23;19.65;;;14.57;;
12224;SDS011;6175;50.956;11.064;2024-02-26T13:41:51;18.35;;;14.75;;
12224;SDS011;6175;50.956;11.064;2024-02-26T13:44:18;16.65;;;13.93;;
12224;SDS011;6175;50.956;11.064;2024-02-26T13:46:46;19.40;;;14.25;;
12224;SDS011;6175;50.956;11.064;2024-02-26T13:49:14;16.38;;;12.85;;
12224;SDS011;6175;50.956;11.064;2024-02-26T13:51:41;19.80;;;15.52;;
12224;SDS011;6175;50.956;11.064;2024-02-26T13:54:08;19.77;;;15.15;;
12224;SDS011;6175;50.956;11.064;2024-02-26T13:56:38;17.17;;;14.07;;
12224;SDS011;6175;50.956;11.064;2024-02-26T13:59:05;20.10;;;15.57;;
12224;SDS011;6175;50.956;11.064;2024-02-26T14:01:32;18.52;;;14.55;;
12224;SDS011;6175;50.956;11.064;2024-02-26T14:04:00;19.40;;;14.38;;
12224;SDS011;6175;50.956;11.064;2024-02-26T14:06:29;18.33;;;14.85;;
12224;SDS011;6175;50.956;11.064;2024-02-26T14:08:57;17.63;;;14.48;;
12224;SDS011;6175;50.956;11.064;2024-02-26T14:11:24;15.50;;;13.60;;
12224;SDS011;6175;50.956;11.064;2024-02-26T14:13:55;17.58;;;13.98;;
12224;SDS011;6175;50.956;11.064;2024-02-26T14:16:22;16.33;;;13.27;;
12224;SDS011;6175;50.956;11.064;2024-02-26T14:18:49;16.00;;;13.93;;
12224;SDS011;6175;50.956;11.064;2024-02-26T14:21:16;15.90;;;13.27;;
12224;SDS011;6175;50.956;11.064;2024-02-26T14:23:44;14.30;;;12.43;;
12224;SDS011;6175;50.956;11.064;2024-02-26T14:26:11;17.45;;;14.10;;
12224;SDS011;6175;50.956;11.064;2024-02-26T14:28:38;17.38;;;13.98;;
12224;SDS011;6175;50.956;11.064;2024-02-26T14:31:07;17.90;;;13.57;;
12224;SDS011;6175;50.956;11.064;2024-02-26T14:33:37;17.80;;;12.40;;
12224;SDS011;6175;50.956;11.064;2024-02-26T14:36:05;16.65;;;12.85;;
12224;SDS011;6175;50.956;11.064;2024-02-26T14:38:33;15.55;;;12.45;;
12224;SDS011;6175;50.956;11.064;2024-02-26T14:41:00;14.77;;;12.05;;
12224;SDS011;6175;50.956;11.064;2024-02-26T14:43:27;16.48;;;12.63;;